Time;durP1;ratioP1;P1;durP2;ratioP2;P2;SDS_P1;SDS_P2;PMS_P1;PMS_P2;Temp;Humidity;BMP_temperature;BMP_pressure;BME280_temperature;BME280_humidity;BME280_pressure;Samples;Min_cycle;Max_cycle;Signal;HPM_P1;HPM_P2
2022/07/02 00:00:03;;;;;;;3.40;1.70;;;;;;;24.46;45.28;99721.31;5104715;28;20051;-88
2022/07/02 00:02:34;;;;;;;3.60;1.63;;;;;;;24.45;45.49;99714.25;5104298;28;20028;-88
2022/07/02 00:05:04;;;;;;;2.78;1.33;;;;;;;24.42;45.49;99710.00;5103655;28;20142;-87
2022/07/02 00:07:30;;;;;;;3.38;1.58;;;;;;;24.42;45.33;99719.81;5103416;28;20032;-87
2022/07/02 00:09:58;;;;;;;3.00;1.63;;;;;;;24.39;45.24;99711.06;5100491;28;20100;-88
2022/07/02 00:12:26;;;;;;;2.70;1.35;;;;;;;24.37;45.01;99712.97;5137674;28;20103;-86
2022/07/02 00:14:54;;;;;;;2.30;1.50;;;;;;;24.35;45.42;99712.25;5137305;27;20443;-88
2022/07/02 00:17:21;;;;;;;3.97;1.63;;;;;;;24.34;45.43;99712.34;5103678;28;20511;-88
2022/07/02 00:19:48;;;;;;;3.58;1.45;;;;;;;24.32;45.55;99714.28;5137798;28;20102;-88
2022/07/02 00:22:15;;;;;;;3.28;1.67;;;;;;;24.30;45.41;99711.72;5104527;28;20028;-87
2022/07/02 00:24:46;;;;;;;3.13;1.85;;;;;;;24.28;45.51;99708.31;5103655;28;20024;-87
2022/07/02 00:27:18;;;;;;;3.35;1.25;;;;;;;24.26;45.20;99704.91;5109727;28;20042;-87
2022/07/02 00:30:00;;;;;;;3.60;1.60;;;;;;;24.26;45.38;99710.25;5111885;28;20061;-87
2022/07/02 00:32:31;;;;;;;3.00;1.40;;;;;;;24.22;45.29;99709.59;5107150;28;20035;-86
2022/07/02 00:34:59;;;;;;;2.55;1.30;;;;;;;24.21;45.49;99701.72;5106333;28;20023;-86
2022/07/02 00:37:30;;;;;;;3.90;1.52;;;;;;;24.18;45.27;99701.94;5106509;28;20020;-87
2022/07/02 00:39:56;;;;;;;2.92;1.50;;;;;;;24.20;45.28;99706.19;5105742;28;20020;-87
2022/07/02 00:42:25;;;;;;;3.45;1.45;;;;;;;24.18;45.36;99701.94;5106166;28;20380;-87
2022/07/02 00:44:52;;;;;;;2.90;1.42;;;;;;;24.18;45.76;99707.25;5106759;28;20027;-89
2022/07/02 00:47:21;;;;;;;3.70;1.60;;;;;;;24.18;45.43;99704.59;5106451;28;20114;-86
2022/07/02 00:49:47;;;;;;;2.10;1.30;;;;;;;24.17;45.46;99705.56;5107814;28;20035;-86
2022/07/02 00:52:13;;;;;;;2.55;1.50;;;;;;;24.12;45.59;99703.22;5105622;28;20024;-88
2022/07/02 00:54:39;;;;;;;1.95;1.20;;;;;;;24.12;45.40;99703.22;5107061;28;20034;-86
2022/07/02 00:57:05;;;;;;;2.28;1.40;;;;;;;24.11;45.18;99697.03;5107275;28;20028;-88
2022/07/02 00:59:32;;;;;;;3.40;1.30;;;;;;;24.11;45.25;99704.16;5106243;28;20100;-87
2022/07/02 01:01:58;;;;;;;2.88;1.30;;;;;;;24.08;45.53;99702.59;5129206;28;20076;-85
2022/07/02 01:04:29;;;;;;;2.40;1.10;;;;;;;24.08;45.54;99701.72;5104731;28;20016;-86
2022/07/02 01:07:01;;;;;;;2.97;1.30;;;;;;;24.05;45.51;99707.22;5104472;28;20019;-87
2022/07/02 01:12:18;;;;;;;2.47;1.13;;;;;;;24.04;45.52;99694.88;5124582;28;20035;-88
2022/07/02 01:14:45;;;;;;;2.35;1.15;;;;;;;24.02;45.41;99702.97;5106496;28;20081;-88
2022/07/02 01:17:11;;;;;;;3.58;1.20;;;;;;;24.01;45.32;99701.28;5106888;28;20026;-89
2022/07/02 01:19:38;;;;;;;3.25;1.13;;;;;;;24.02;45.28;99705.63;5107652;28;20012;-89
2022/07/02 01:22:22;;;;;;;2.45;1.20;;;;;;;23.98;45.37;99702.34;5108089;28;20372;-88
2022/07/02 01:24:49;;;;;;;2.67;1.10;;;;;;;23.97;45.11;99700.63;5108912;28;20399;-89
2022/07/02 01:27:17;;;;;;;2.28;1.02;;;;;;;23.98;44.95;99697.00;5109636;28;20028;-90
2022/07/02 01:29:43;;;;;;;1.95;1.00;;;;;;;23.97;45.36;99692.63;5110845;28;20096;-89
2022/07/02 01:32:10;;;;;;;2.65;1.00;;;;;;;23.94;45.27;99689.34;5114549;28;20027;-88
2022/07/02 01:34:38;;;;;;;2.60;1.00;;;;;;;23.92;45.63;99692.09;5115846;28;20023;-89
2022/07/02 01:37:06;;;;;;;2.80;1.20;;;;;;;23.91;45.47;99686.91;5148900;27;20065;-88
2022/07/02 01:39:32;;;;;;;5.30;1.13;;;;;;;23.91;45.45;99695.75;5115140;28;20083;-88
2022/07/02 01:41:58;;;;;;;1.80;1.05;;;;;;;23.93;45.58;99682.31;5107618;28;20094;-86
2022/07/02 01:44:24;;;;;;;2.38;0.90;;;;;;;23.91;45.29;99685.06;5139319;27;20106;-86
2022/07/02 01:46:50;;;;;;;3.90;1.15;;;;;;;23.91;45.10;99686.91;5123588;28;20098;-86
2022/07/02 01:49:16;;;;;;;2.58;0.93;;;;;;;23.89;45.29;99680.81;5106018;28;20024;-86
2022/07/02 01:51:41;;;;;;;3.13;1.20;;;;;;;23.88;45.24;99679.97;5107348;28;20020;-86
2022/07/02 01:54:07;;;;;;;2.58;1.10;;;;;;;23.87;45.24;99675.59;5106946;28;20103;-86
2022/07/02 01:56:34;;;;;;;2.42;1.00;;;;;;;23.85;45.45;99674.84;5141711;27;20043;-87
2022/07/02 01:58:59;;;;;;;2.58;1.00;;;;;;;23.83;45.40;99677.63;5141263;27;20019;-86
2022/07/02 02:01:25;;;;;;;1.92;1.00;;;;;;;23.83;45.19;99669.63;5108035;28;20408;-86
2022/07/02 02:03:51;;;;;;;1.60;0.90;;;;;;;23.81;45.43;99663.56;5142975;27;20034;-87
2022/07/02 02:06:17;;;;;;;1.90;1.00;;;;;;;23.81;45.35;99668.88;5109475;28;20015;-86
2022/07/02 02:08:43;;;;;;;3.25;0.90;;;;;;;23.80;45.39;99658.31;5144824;27;20040;-86
2022/07/02 02:11:09;;;;;;;1.50;0.90;;;;;;;23.77;45.62;99662.06;5111570;28;20053;-87
2022/07/02 02:13:37;;;;;;;2.08;0.88;;;;;;;23.78;45.57;99666.41;5126942;28;20033;-87
2022/07/02 02:16:03;;;;;;;1.30;0.77;;;;;;;23.77;45.61;99672.72;5106524;28;20053;-87
2022/07/02 02:18:30;;;;;;;1.90;0.90;;;;;;;23.77;45.50;99667.38;5140880;27;20035;-87
2022/07/02 02:20:56;;;;;;;1.98;0.90;;;;;;;23.77;45.59;99656.72;5106823;28;20423;-86
2022/07/02 02:23:21;;;;;;;1.40;0.80;;;;;;;23.78;45.48;99658.44;5124063;28;20073;-87
2022/07/02 02:25:47;;;;;;;2.67;1.00;;;;;;;23.77;45.81;99656.72;5106298;28;20034;-86
2022/07/02 02:28:13;;;;;;;1.45;0.82;;;;;;;23.76;45.62;99660.34;5141112;27;20456;-86
2022/07/02 02:30:39;;;;;;;1.15;0.73;;;;;;;23.75;45.59;99658.66;5108292;28;20505;-87
2022/07/02 02:33:07;;;;;;;1.70;0.80;;;;;;;23.73;45.39;99641.94;5105738;28;20468;-88
2022/07/02 02:35:33;;;;;;;1.55;0.80;;;;;;;23.72;45.59;99648.19;5107861;28;20027;-88
2022/07/02 02:37:59;;;;;;;1.80;0.90;;;;;;;23.71;45.49;99646.50;5126700;28;20031;-88
2022/07/02 02:40:25;;;;;;;1.27;0.90;;;;;;;23.69;45.57;99648.44;5143805;27;20024;-87
2022/07/02 02:42:50;;;;;;;1.48;0.73;;;;;;;23.67;45.59;99645.03;5110401;28;20031;-86
2022/07/02 02:45:16;;;;;;;2.00;0.98;;;;;;;23.66;45.81;99644.16;5105917;28;20376;-87
2022/07/02 02:47:42;;;;;;;2.42;0.80;;;;;;;23.65;45.66;99647.78;5105271;28;20035;-87
2022/07/02 02:50:08;;;;;;;2.28;0.90;;;;;;;23.65;45.56;99646.94;5124590;28;20027;-86
2022/07/02 02:52:34;;;;;;;1.83;0.80;;;;;;;23.63;45.67;99654.19;5106204;28;20381;-87
2022/07/02 02:55:00;;;;;;;1.55;0.73;;;;;;;23.62;45.47;99665.81;5105938;28;20024;-87
2022/07/02 02:57:27;;;;;;;1.52;0.80;;;;;;;23.62;45.66;99657.81;5105782;28;20046;-87
2022/07/02 02:59:52;;;;;;;1.88;0.90;;;;;;;23.59;45.58;99662.38;5106168;28;20016;-89
2022/07/02 03:02:18;;;;;;;2.45;0.82;;;;;;;23.61;45.67;99664.94;5106087;28;20024;-86
2022/07/02 03:04:44;;;;;;;1.73;0.85;;;;;;;23.62;45.68;99655.16;5106427;28;20034;-87
2022/07/02 03:07:10;;;;;;;2.25;0.90;;;;;;;23.62;45.80;99652.50;5124177;28;20030;-86
2022/07/02 03:09:36;;;;;;;1.58;0.60;;;;;;;23.63;45.69;99651.53;5139615;27;20055;-86
2022/07/02 03:12:01;;;;;;;1.73;0.88;;;;;;;23.58;45.53;99663.34;5109475;28;20100;-87
2022/07/02 03:14:27;;;;;;;2.53;0.80;;;;;;;23.58;45.87;99668.66;5108035;28;20452;-88
2022/07/02 03:16:53;;;;;;;2.78;0.80;;;;;;;23.59;45.69;99670.38;5105900;28;20084;-86
2022/07/02 03:19:19;;;;;;;1.65;0.85;;;;;;;23.59;45.76;99681.03;5107032;28;20203;-88
2022/07/02 03:21:47;;;;;;;1.10;0.70;;;;;;;23.58;45.49;99679.31;5124768;28;20027;-87
2022/07/02 03:24:13;;;;;;;1.27;0.80;;;;;;;23.57;45.78;99666.97;5141295;27;20087;-88
2022/07/02 03:26:39;;;;;;;1.40;0.77;;;;;;;23.58;45.71;99663.34;5106699;28;20055;-87
2022/07/02 03:29:05;;;;;;;1.48;0.77;;;;;;;23.56;45.83;99659.94;5140567;27;20453;-87
2022/07/02 03:31:32;;;;;;;2.50;0.80;;;;;;;23.54;45.93;99661.84;5105931;28;20028;-87
2022/07/02 03:33:58;;;;;;;2.85;0.95;;;;;;;23.53;45.80;99665.47;5141108;27;20032;-86
2022/07/02 03:36:24;;;;;;;3.08;0.80;;;;;;;23.52;45.98;99669.09;5107255;28;20035;-87
2022/07/02 03:38:50;;;;;;;1.65;0.70;;;;;;;23.50;46.00;99663.03;5142017;27;20028;-87
2022/07/02 03:41:15;;;;;;;1.42;0.70;;;;;;;23.50;46.08;99655.03;5107273;28;20126;-87
2022/07/02 03:43:42;;;;;;;1.73;0.93;;;;;;;23.50;45.82;99659.50;5109353;28;20027;-88
2022/07/02 03:46:08;;;;;;;1.63;0.85;;;;;;;23.48;45.90;99662.25;5131506;28;20043;-90
2022/07/02 03:48:37;;;;;;;1.73;1.00;;;;;;;23.49;46.26;99658.66;5114105;28;20043;-88
2022/07/02 03:51:02;;;;;;;2.63;1.00;;;;;;;23.46;46.13;99653.53;5113372;28;20023;-88
2022/07/02 03:53:28;;;;;;;2.75;1.00;;;;;;;23.46;46.21;99654.41;5108058;28;20034;-89
2022/07/02 03:55:54;;;;;;;1.23;0.70;;;;;;;23.45;46.09;99657.16;5141309;27;20084;-89
2022/07/02 03:58:21;;;;;;;1.70;0.90;;;;;;;23.46;45.90;99659.72;5107201;28;20028;-89
2022/07/02 04:00:46;;;;;;;1.52;0.82;;;;;;;23.44;46.02;99656.28;5108405;28;20047;-88
2022/07/02 04:03:12;;;;;;;1.48;0.88;;;;;;;23.44;46.08;99655.47;5144815;27;20027;-89
2022/07/02 04:05:38;;;;;;;2.78;1.00;;;;;;;23.41;46.13;99655.66;5104995;28;20122;-88
2022/07/02 04:08:04;;;;;;;3.05;1.10;;;;;;;23.40;46.24;99657.47;5102126;28;20020;-87
2022/07/02 04:10:30;;;;;;;1.48;0.82;;;;;;;23.39;45.94;99660.25;5104202;28;20038;-88
2022/07/02 04:12:55;;;;;;;2.40;0.85;;;;;;;23.38;46.15;99667.38;5105943;28;20069;-88
2022/07/02 04:15:21;;;;;;;2.58;1.00;;;;;;;23.36;46.10;99663.97;5105851;28;20043;-87
2022/07/02 04:17:47;;;;;;;2.38;0.95;;;;;;;23.35;46.39;99662.28;5140153;27;20038;-88
2022/07/02 04:20:13;;;;;;;1.85;1.00;;;;;;;23.33;46.31;99659.69;5105921;28;20019;-87
2022/07/02 04:22:38;;;;;;;2.70;0.88;;;;;;;23.36;46.08;99657.78;5107725;28;20034;-88
2022/07/02 04:25:05;;;;;;;2.17;1.13;;;;;;;23.33;46.12;99659.69;5103890;28;20024;-87
2022/07/02 04:27:30;;;;;;;2.70;0.90;;;;;;;23.34;46.27;99660.53;5105029;28;20124;-87
2022/07/02 04:29:56;;;;;;;2.75;1.08;;;;;;;23.33;46.11;99654.38;5105011;28;20024;-88
2022/07/02 04:32:22;;;;;;;3.33;1.10;;;;;;;23.33;46.24;99650.84;5105991;28;20357;-88
2022/07/02 04:34:48;;;;;;;2.17;1.00;;;;;;;23.32;46.23;99651.81;5122513;28;20028;-87
2022/07/02 04:37:13;;;;;;;2.17;0.82;;;;;;;23.31;46.35;99648.31;5105260;28;20023;-88
2022/07/02 04:39:39;;;;;;;0.95;0.70;;;;;;;23.31;46.24;99650.97;5106322;28;20106;-88
2022/07/02 04:42:05;;;;;;;1.95;0.90;;;;;;;23.30;46.55;99651.88;5105546;28;20019;-88
2022/07/02 04:44:31;;;;;;;2.42;0.90;;;;;;;23.30;46.32;99649.22;5107402;28;20027;-88
2022/07/02 04:46:57;;;;;;;2.10;1.00;;;;;;;23.30;46.26;99654.53;5141278;27;20031;-88
2022/07/02 04:49:25;;;;;;;1.75;0.80;;;;;;;23.30;46.56;99654.53;5107529;28;20060;-91
2022/07/02 04:51:52;;;;;;;2.33;0.80;;;;;;;23.32;46.45;99659.78;5108319;28;20376;-88
2022/07/02 04:54:19;;;;;;;1.52;0.80;;;;;;;23.32;46.35;99658.00;5109509;28;20027;-88
2022/07/02 04:56:45;;;;;;;3.25;1.00;;;;;;;23.31;46.24;99658.97;5109902;28;20030;-86
2022/07/02 04:59:11;;;;;;;2.30;1.00;;;;;;;23.30;46.20;99659.03;5106808;28;20024;-87
2022/07/02 05:01:37;;;;;;;1.55;0.80;;;;;;;23.29;46.46;99663.47;5108649;28;20111;-87
2022/07/02 05:04:03;;;;;;;1.88;1.00;;;;;;;23.29;46.50;99667.97;5104812;28;20055;-86
2022/07/02 05:06:29;;;;;;;2.38;0.95;;;;;;;23.29;46.51;99666.16;5125782;28;20027;-87
2022/07/02 05:08:55;;;;;;;2.30;1.20;;;;;;;23.29;46.26;99663.47;5115543;28;20124;-88
2022/07/02 05:11:21;;;;;;;2.55;0.95;;;;;;;23.30;46.42;99664.34;5127186;28;20031;-86
2022/07/02 05:13:48;;;;;;;1.60;1.00;;;;;;;23.29;46.61;99654.66;5123987;28;20070;-89
2022/07/02 05:16:13;;;;;;;2.25;1.20;;;;;;;23.30;46.16;99659.84;5105442;28;20449;-88
2022/07/02 05:18:39;;;;;;;2.28;0.98;;;;;;;23.30;46.49;99653.69;5108786;28;20023;-87
2022/07/02 05:21:05;;;;;;;3.58;1.20;;;;;;;23.30;46.48;99651.88;5109166;28;20028;-88
2022/07/02 05:23:31;;;;;;;2.70;1.10;;;;;;;23.28;46.42;99656.47;5109115;28;20031;-87
2022/07/02 05:25:57;;;;;;;2.22;1.08;;;;;;;23.29;46.38;99647.50;5110175;28;20055;-88
2022/07/02 05:28:24;;;;;;;2.15;1.17;;;;;;;23.29;46.26;99663.47;5112637;28;20028;-86
2022/07/02 05:30:51;;;;;;;1.90;1.13;;;;;;;23.29;46.49;99652.84;5110989;28;20031;-86
2022/07/02 05:33:18;;;;;;;1.40;0.77;;;;;;;23.28;46.31;99651.13;5107189;28;20365;-86
2022/07/02 05:35:44;;;;;;;1.85;0.85;;;;;;;23.29;46.49;99657.31;5105051;28;20023;-88
2022/07/02 05:38:11;;;;;;;2.53;1.00;;;;;;;23.30;46.55;99665.19;5104851;28;20462;-88
2022/07/02 05:40:37;;;;;;;2.05;1.17;;;;;;;23.31;46.58;99666.94;5106463;28;20091;-88
2022/07/02 05:43:06;;;;;;;1.95;1.00;;;;;;;23.31;46.74;99672.28;5105382;28;20038;-86
2022/07/02 05:48:54;;;;;;;3.78;1.20;;;;;;;23.32;46.75;99665.13;5124974;28;20109;-87
2022/07/02 05:51:20;;;;;;;1.80;0.90;;;;;;;23.31;46.66;99653.63;5108341;28;20053;-88
2022/07/02 05:53:46;;;;;;;2.63;1.02;;;;;;;23.33;46.72;99654.38;5109430;28;20177;-87
2022/07/02 05:56:12;;;;;;;1.90;1.10;;;;;;;23.32;46.57;99657.13;5128353;28;20034;-89
2022/07/02 05:58:39;;;;;;;2.90;1.38;;;;;;;23.35;46.44;99666.72;5110346;28;20114;-89
2022/07/02 06:01:05;;;;;;;2.55;0.90;;;;;;;23.37;46.54;99659.47;5114174;28;20045;-90
2022/07/02 06:03:31;;;;;;;3.03;1.10;;;;;;;23.36;46.57;99663.97;5112171;28;20115;-87
2022/07/02 06:08:41;;;;;;;1.50;0.93;;;;;;;23.38;46.65;99655.88;5123631;28;20139;-90
2022/07/02 06:11:08;;;;;;;2.67;1.02;;;;;;;23.39;46.60;99669.06;5139217;27;20055;-89
2022/07/02 06:13:34;;;;;;;1.67;1.00;;;;;;;23.41;46.57;99671.63;5105148;28;20043;-87
2022/07/02 06:15:59;;;;;;;1.75;1.00;;;;;;;23.41;46.70;99675.16;5106374;28;20031;-87
2022/07/02 06:18:25;;;;;;;1.98;1.00;;;;;;;23.42;46.61;99681.31;5105737;28;20024;-88
2022/07/02 06:20:51;;;;;;;1.70;0.90;;;;;;;23.43;46.62;99675.91;5106246;28;20031;-88
2022/07/02 06:23:19;;;;;;;1.92;0.82;;;;;;;23.44;46.50;99671.44;5107262;28;20095;-87
2022/07/02 06:25:45;;;;;;;2.85;1.15;;;;;;;23.46;46.43;99680.16;5109698;28;20034;-87
2022/07/02 06:28:11;;;;;;;1.73;1.08;;;;;;;23.46;46.84;99685.50;5110739;28;20036;-88
2022/07/02 06:30:37;;;;;;;1.83;1.13;;;;;;;23.45;46.76;99684.63;5143196;27;20060;-87
2022/07/02 06:33:03;;;;;;;1.85;1.15;;;;;;;23.45;46.69;99683.78;5110253;28;20046;-87
2022/07/02 06:35:29;;;;;;;2.30;1.00;;;;;;;23.48;46.67;99680.06;5143677;27;20042;-87
2022/07/02 06:37:54;;;;;;;2.90;1.15;;;;;;;23.49;46.70;99679.09;5111872;28;20377;-87
2022/07/02 06:40:20;;;;;;;2.75;1.10;;;;;;;23.48;46.86;99683.56;5106315;28;20340;-88
2022/07/02 06:42:46;;;;;;;2.03;1.00;;;;;;;23.49;46.92;99684.44;5105660;28;20023;-87
2022/07/02 06:45:12;;;;;;;1.60;0.93;;;;;;;23.51;46.83;99688.69;5105844;28;20360;-86
2022/07/02 06:47:42;;;;;;;2.75;1.20;;;;;;;23.51;46.73;99694.03;5140699;27;20418;-87
2022/07/02 06:50:09;;;;;;;1.90;0.90;;;;;;;23.54;46.86;99688.47;5106760;28;20061;-86
2022/07/02 06:52:38;;;;;;;3.22;1.20;;;;;;;23.55;46.73;99684.88;5105281;28;20027;-87
2022/07/02 06:55:21;;;;;;;;;;;;;;;;;;;;;
2022/07/02 06:57:50;;;;;;;2.00;0.85;;;;;;;23.57;47.03;99682.09;5123276;28;20110;-87
2022/07/02 07:00:21;;;;;;;2.15;1.00;;;;;;;23.59;46.81;99674.84;5106513;28;20041;-87
2022/07/02 07:02:46;;;;;;;1.73;0.90;;;;;;;23.59;46.83;99681.03;5108872;28;20038;-87
2022/07/02 07:05:12;;;;;;;2.65;0.98;;;;;;;23.60;46.95;99672.06;5127356;28;20027;-87
2022/07/02 07:07:38;;;;;;;1.48;1.10;;;;;;;23.63;47.11;99667.50;5107025;28;20110;-87
2022/07/02 07:10:04;;;;;;;2.25;1.17;;;;;;;23.64;46.72;99671.88;5105791;28;20059;-85
2022/07/02 07:12:35;;;;;;;1.35;1.05;;;;;;;23.66;46.88;99668.13;5107538;28;20023;-87
2022/07/02 07:15:06;;;;;;;1.40;1.00;;;;;;;23.69;46.94;99669.75;5119951;28;20031;-87
2022/07/02 07:17:39;;;;;;;1.70;1.00;;;;;;;23.69;46.58;99669.75;5101865;28;20028;-86
2022/07/02 07:20:05;;;;;;;1.88;0.90;;;;;;;23.73;47.01;99665.91;5120707;28;20112;-87
2022/07/02 07:22:31;;;;;;;2.50;1.10;;;;;;;23.74;46.72;99665.78;5120842;28;20031;-87
2022/07/02 07:24:58;;;;;;;1.65;0.80;;;;;;;23.75;46.69;99666.66;5102743;28;20106;-87
2022/07/02 07:27:31;;;;;;;2.05;1.00;;;;;;;23.79;46.63;99670.81;5121673;28;20449;-86
2022/07/02 07:30:08;;;;;;;1.58;1.00;;;;;;;23.80;46.69;99672.50;5121533;28;20023;-87
2022/07/02 07:32:34;;;;;;;2.08;1.00;;;;;;;23.82;46.64;99670.59;5103919;28;20118;-86
2022/07/02 07:35:00;;;;;;;2.67;1.00;;;;;;;23.84;46.59;99673.16;5102463;28;20063;-86
2022/07/02 07:37:26;;;;;;;1.65;1.00;;;;;;;23.85;46.57;99669.53;5103550;28;20137;-87
2022/07/02 07:39:58;;;;;;;1.67;1.00;;;;;;;23.87;46.41;99664.94;5137479;27;20027;-86
2022/07/02 07:42:27;;;;;;;3.55;1.10;;;;;;;23.90;46.51;99667.38;5121381;28;20364;-87
2022/07/02 07:44:53;;;;;;;3.42;1.00;;;;;;;23.93;46.23;99666.31;5125685;28;20019;-85
2022/07/02 07:47:26;;;;;;;2.88;1.00;;;;;;;23.94;46.36;99673.34;5137080;27;20030;-87
2022/07/02 07:49:53;;;;;;;1.50;0.88;;;;;;;23.95;46.53;99659.06;5134737;27;20028;-87
2022/07/02 07:52:34;;;;;;;1.58;0.80;;;;;;;23.97;46.20;99658.00;5103003;28;20024;-86
2022/07/02 07:55:15;;;;;;;2.08;0.90;;;;;;;24.00;46.56;99654.25;5101964;28;20027;-89
2022/07/02 07:57:40;;;;;;;2.10;0.90;;;;;;;24.03;46.30;99662.06;5099913;28;20039;-88
2022/07/02 08:00:08;;;;;;;2.15;0.90;;;;;;;24.04;46.21;99658.41;5102430;28;20031;-89
2022/07/02 08:02:40;;;;;;;1.02;0.68;;;;;;;24.08;46.17;99659.94;5102383;28;20528;-88
2022/07/02 08:05:06;;;;;;;1.63;0.90;;;;;;;24.10;46.19;99663.34;5135951;27;20027;-88
2022/07/02 08:07:37;;;;;;;1.80;0.88;;;;;;;24.12;46.17;99658.75;5103107;28;20042;-89
2022/07/02 08:10:10;;;;;;;2.15;1.02;;;;;;;24.16;46.00;99663.88;5104670;28;20067;-88
2022/07/02 08:12:42;;;;;;;2.17;0.98;;;;;;;24.18;46.09;99659.28;5106496;28;20027;-88
2022/07/02 08:15:09;;;;;;;1.65;0.88;;;;;;;24.21;45.85;99664.41;5088709;28;20088;-89
2022/07/02 08:17:37;;;;;;;1.92;0.80;;;;;;;24.25;46.15;99668.53;5106301;28;20034;-88
2022/07/02 08:20:05;;;;;;;2.85;1.10;;;;;;;24.25;45.87;99665.88;5103025;28;20027;-87
2022/07/02 08:22:33;;;;;;;2.20;1.00;;;;;;;24.27;45.91;99658.63;5119169;28;20055;-87
2022/07/02 08:24:59;;;;;;;2.13;1.10;;;;;;;24.29;45.64;99656.69;5100922;28;20036;-87
2022/07/02 08:27:25;;;;;;;2.05;1.00;;;;;;;24.31;45.94;99657.41;5101039;28;20035;-86
2022/07/02 08:29:52;;;;;;;2.05;0.98;;;;;;;24.35;45.77;99664.25;5100859;28;20068;-88
2022/07/02 08:32:18;;;;;;;2.05;0.98;;;;;;;24.38;45.84;99663.19;5101367;28;20088;-87
2022/07/02 08:34:47;;;;;;;1.88;0.95;;;;;;;24.39;45.81;99662.19;5103853;28;20039;-88
2022/07/02 08:37:13;;;;;;;2.28;0.88;;;;;;;24.43;45.81;99657.50;5100809;28;20035;-87
2022/07/02 08:39:38;;;;;;;2.38;1.10;;;;;;;24.45;45.30;99660.94;5098080;28;20104;-86
2022/07/02 08:42:06;;;;;;;1.75;0.80;;;;;;;24.46;45.85;99657.28;5099905;28;20399;-89
2022/07/02 08:44:32;;;;;;;1.25;0.80;;;;;;;24.48;45.75;99655.34;5120554;28;20107;-88
2022/07/02 08:47:00;;;;;;;1.25;0.73;;;;;;;24.50;45.23;99653.44;5120585;28;20342;-89
2022/07/02 08:49:29;;;;;;;2.15;0.88;;;;;;;24.52;45.40;99647.03;5105286;28;20027;-88
2022/07/02 08:52:43;;;;;;;2.35;0.80;;;;;;;24.55;45.33;99651.25;5107338;28;20027;-89
2022/07/02 08:55:10;;;;;;;1.48;0.73;;;;;;;24.57;45.46;99646.69;5097240;28;20469;-87
2022/07/02 08:57:40;;;;;;;0.85;0.63;;;;;;;24.58;45.24;99635.03;5083963;28;20039;-87
2022/07/02 09:00:15;;;;;;;1.40;0.80;;;;;;;24.61;45.51;99640.16;5101550;28;20024;-87
2022/07/02 09:02:45;;;;;;;1.03;0.80;;;;;;;24.64;45.11;99633.72;5084317;28;20028;-87
2022/07/02 09:05:13;;;;;;;2.28;1.00;;;;;;;24.65;45.50;99635.47;5084504;28;20061;-87
2022/07/02 09:08:00;;;;;;;2.38;0.98;;;;;;;24.66;45.38;99632.66;5083974;28;20036;-86
2022/07/02 09:10:36;;;;;;;1.73;0.93;;;;;;;24.72;45.43;99635.84;5083756;28;20036;-87
2022/07/02 09:13:06;;;;;;;1.65;0.75;;;;;;;24.74;44.87;99628.59;5102610;28;20032;-85
2022/07/02 09:15:34;;;;;;;1.10;0.80;;;;;;;24.75;45.07;99620.44;5087514;28;20032;-86
2022/07/02 09:18:11;;;;;;;2.45;0.80;;;;;;;24.81;45.12;99629.84;5088182;28;20024;-87
2022/07/02 09:20:38;;;;;;;1.90;0.98;;;;;;;24.83;44.89;99627.09;5091657;28;20020;-86
2022/07/02 09:23:09;;;;;;;2.95;0.90;;;;;;;24.84;44.83;99632.28;5088256;28;20039;-85
2022/07/02 09:25:35;;;;;;;2.83;1.00;;;;;;;24.87;44.77;99633.88;5086775;28;20046;-86
2022/07/02 09:28:04;;;;;;;2.58;0.88;;;;;;;24.88;45.08;99627.56;5085954;28;20046;-86
2022/07/02 09:30:35;;;;;;;3.22;1.00;;;;;;;24.91;44.92;99636.22;5082427;28;20016;-86
2022/07/02 09:35:46;;;;;;;1.75;0.88;;;;;;;24.97;45.05;99631.34;5100949;28;20096;-87
2022/07/02 09:38:12;;;;;;;1.52;0.70;;;;;;;24.98;44.81;99635.75;5117487;28;20020;-87
2022/07/02 09:40:50;;;;;;;1.60;0.90;;;;;;;25.02;44.67;99642.53;5083802;28;20020;-87
2022/07/02 09:43:27;;;;;;;1.48;0.60;;;;;;;25.06;44.52;99644.00;5082511;28;20035;-86
2022/07/02 09:45:55;;;;;;;1.55;0.50;;;;;;;25.06;44.71;99639.53;5082571;28;20019;-87
2022/07/02 09:48:20;;;;;;;2.33;0.90;;;;;;;25.11;44.83;99641.84;5082879;28;20130;-87
2022/07/02 09:50:46;;;;;;;2.08;0.80;;;;;;;25.11;44.75;99641.84;5082794;28;20052;-85
2022/07/02 09:53:12;;;;;;;0.90;0.52;;;;;;;25.12;44.54;99638.22;5083376;28;20024;-85
2022/07/02 09:55:40;;;;;;;0.85;0.50;;;;;;;25.15;44.73;99640.66;5086448;28;20020;-87
2022/07/02 09:58:05;;;;;;;1.85;0.82;;;;;;;25.16;44.62;99634.34;5085066;28;20038;-87
2022/07/02 10:00:43;;;;;;;1.20;0.60;;;;;;;25.19;44.37;99634.09;5090344;28;20043;-87
2022/07/02 10:03:09;;;;;;;1.38;0.75;;;;;;;25.21;44.52;99631.31;5082123;28;20369;-86
2022/07/02 10:05:58;;;;;;;1.55;0.65;;;;;;;25.24;44.56;99627.56;5082296;28;20027;-86
2022/07/02 10:08:25;;;;;;;2.83;0.90;;;;;;;25.26;44.45;99633.63;5080308;28;20059;-87
2022/07/02 10:10:54;;;;;;;1.13;0.52;;;;;;;25.29;44.25;99622.72;5079481;28;20115;-88
2022/07/02 10:13:21;;;;;;;2.50;0.80;;;;;;;25.31;44.33;99620.78;5080082;28;20035;-86
2022/07/02 10:15:47;;;;;;;1.25;0.73;;;;;;;25.33;44.49;99621.53;5081183;28;20118;-86
2022/07/02 10:18:14;;;;;;;1.23;0.50;;;;;;;25.34;44.59;99615.22;5082149;28;20055;-86
2022/07/02 10:20:40;;;;;;;0.95;0.50;;;;;;;25.37;44.41;99614.97;5084200;28;20016;-87
2022/07/02 10:23:07;;;;;;;2.35;0.80;;;;;;;25.39;43.94;99607.69;5083967;28;20091;-87
2022/07/02 10:25:34;;;;;;;2.17;1.15;;;;;;;25.42;44.24;99612.78;5085107;28;20028;-87
2022/07/02 10:28:00;;;;;;;1.08;0.60;;;;;;;25.45;44.39;99611.69;5086554;28;20477;-88
2022/07/02 10:30:37;;;;;;;1.27;0.63;;;;;;;25.46;44.24;99605.38;5088395;28;20089;-88
2022/07/02 10:33:18;;;;;;;1.95;0.80;;;;;;;25.48;44.01;99611.47;5089569;28;20678;-87
2022/07/02 10:35:47;;;;;;;1.65;0.70;;;;;;;25.51;44.06;99613.06;5087033;28;20028;-86
2022/07/02 10:38:26;;;;;;;1.20;0.73;;;;;;;25.54;43.90;99604.81;5100738;28;20460;-87
2022/07/02 10:40:52;;;;;;;2.45;0.80;;;;;;;25.56;44.14;99603.72;5082739;28;20090;-86
2022/07/02 10:43:18;;;;;;;0.70;0.50;;;;;;;25.59;44.01;99597.28;5098273;28;20031;-87
2022/07/02 10:45:46;;;;;;;0.70;0.57;;;;;;;25.60;44.30;99593.66;5079589;28;20453;-87
2022/07/02 10:48:13;;;;;;;1.83;0.70;;;;;;;25.62;43.99;99601.53;5079881;28;20047;-87
2022/07/02 10:50:43;;;;;;;2.17;0.70;;;;;;;25.62;44.22;99589.06;5079997;28;20458;-88
2022/07/02 10:53:21;;;;;;;1.17;0.70;;;;;;;25.66;44.30;99587.81;5079851;28;20024;-87
2022/07/02 10:56:02;;;;;;;1.25;0.63;;;;;;;25.69;44.19;99592.94;5098117;28;20047;-89
2022/07/02 10:58:31;;;;;;;1.58;0.68;;;;;;;25.71;43.97;99584.81;5081075;28;20028;-88
2022/07/02 11:01:46;;;;;;;0.95;0.65;;;;;;;25.74;44.25;99585.41;5099342;28;20043;-89
2022/07/02 11:04:20;;;;;;;2.00;0.70;;;;;;;25.79;44.17;99581.50;5063841;28;20040;-88
2022/07/02 11:06:49;;;;;;;1.55;0.80;;;;;;;25.81;44.06;99579.56;5087008;28;20024;-86
2022/07/02 11:09:21;;;;;;;1.35;0.60;;;;;;;25.84;44.21;99579.31;5104370;28;20040;-87
2022/07/02 11:11:53;;;;;;;2.58;0.75;;;;;;;25.85;43.89;99575.66;5085130;28;20473;-87
2022/07/02 11:14:26;;;;;;;0.77;0.60;;;;;;;25.87;44.04;99579.06;5085956;28;20024;-88
2022/07/02 11:17:18;;;;;;;2.10;0.75;;;;;;;25.90;44.20;99576.13;5087928;28;20036;-87
2022/07/02 11:19:53;;;;;;;1.45;0.70;;;;;;;25.93;44.16;99578.59;5086360;28;20024;-85
2022/07/02 11:22:19;;;;;;;1.63;0.70;;;;;;;25.94;44.10;99571.38;5080237;28;20027;-86
2022/07/02 11:24:45;;;;;;;1.40;0.68;;;;;;;25.97;44.05;99569.34;5097002;28;20409;-86
2022/07/02 11:27:14;;;;;;;1.02;0.68;;;;;;;26.01;44.10;99570.78;5079252;28;20042;-86
2022/07/02 11:29:39;;;;;;;1.15;0.60;;;;;;;26.04;44.17;99574.19;5113783;28;20056;-86
2022/07/02 11:32:05;;;;;;;2.58;0.70;;;;;;;26.07;44.09;99568.59;5097597;28;20028;-85
2022/07/02 11:34:31;;;;;;;1.63;0.70;;;;;;;26.09;43.92;99569.31;5080472;28;20553;-85
2022/07/02 11:36:58;;;;;;;1.77;0.70;;;;;;;26.13;44.04;99574.31;5080160;28;20425;-87
2022/07/02 11:39:26;;;;;;;1.77;0.85;;;;;;;26.14;44.23;99567.97;5082294;28;20085;-86
2022/07/02 11:41:52;;;;;;;0.70;0.52;;;;;;;26.15;44.08;99566.16;5100774;28;20027;-88
2022/07/02 11:44:24;;;;;;;1.70;0.70;;;;;;;26.18;44.13;99565.03;5083202;28;20027;-87
2022/07/02 11:46:58;;;;;;;2.08;0.52;;;;;;;26.22;43.82;99566.47;5085285;28;20039;-85
2022/07/02 11:49:25;;;;;;;0.93;0.50;;;;;;;26.24;43.92;99564.59;5116360;28;20024;-85